createdAt,value
2023-03-15T00:01:40.298Z,1.10
2023-03-15T00:04:07.737Z,0.90
2023-03-15T00:06:35.818Z,0.97
2023-03-15T00:09:04.240Z,0.90
2023-03-15T00:11:32.154Z,0.90
2023-03-15T00:14:02.324Z,1.00
2023-03-15T00:16:29.776Z,0.80
2023-03-15T00:18:57.412Z,0.93
2023-03-15T00:21:24.976Z,1.10
2023-03-15T00:23:52.924Z,0.97
2023-03-15T00:26:20.916Z,0.93
2023-03-15T00:28:48.294Z,0.90
2023-03-15T00:31:18.228Z,1.00
2023-03-15T00:33:45.970Z,0.90
2023-03-15T00:36:13.749Z,0.97
2023-03-15T00:38:42.786Z,0.80
2023-03-15T00:41:11.560Z,0.77
2023-03-15T00:43:39.120Z,0.90
2023-03-15T00:46:07.065Z,0.80
2023-03-15T00:48:36.299Z,0.90
2023-03-15T00:51:07.420Z,0.80
2023-03-15T00:53:35.293Z,0.90
2023-03-15T00:56:06.592Z,0.90
2023-03-15T00:58:33.953Z,0.90
2023-03-15T01:01:02.113Z,0.87
2023-03-15T01:03:30.092Z,1.00
2023-03-15T01:05:58.825Z,0.90
2023-03-15T01:08:26.241Z,0.87
2023-03-15T01:10:53.603Z,0.93
2023-03-15T01:13:22.595Z,1.10
2023-03-15T01:15:50.055Z,0.90
2023-03-15T01:18:17.520Z,1.10
2023-03-15T01:20:45.771Z,1.00
2023-03-15T01:23:16.139Z,1.00
2023-03-15T01:25:43.543Z,0.70
2023-03-15T01:28:11.044Z,0.80
2023-03-15T01:30:38.481Z,0.80
2023-03-15T01:33:05.991Z,1.00
2023-03-15T01:35:33.436Z,1.00
2023-03-15T01:38:00.853Z,0.90
2023-03-15T01:40:30.759Z,1.07
2023-03-15T01:43:14.570Z,1.00
2023-03-15T01:45:55.435Z,1.00
2023-03-15T01:48:25.093Z,1.10
2023-03-15T01:50:54.659Z,1.10
2023-03-15T01:53:23.096Z,1.07
2023-03-15T01:55:53.091Z,1.23
2023-03-15T01:58:26.909Z,1.00
2023-03-15T02:00:55.290Z,1.00
2023-03-15T02:03:25.909Z,1.40
2023-03-15T02:05:57.521Z,1.10
2023-03-15T02:08:38.949Z,1.20
2023-03-15T02:11:07.764Z,1.33
2023-03-15T02:13:35.804Z,1.50
2023-03-15T02:16:08.300Z,1.50
2023-03-15T02:18:45.433Z,1.37
2023-03-15T02:21:17.986Z,1.40
2023-03-15T02:23:46.348Z,1.40
2023-03-15T02:26:18.862Z,1.40
2023-03-15T02:28:47.886Z,1.37
2023-03-15T02:31:15.869Z,1.40
2023-03-15T02:33:44.621Z,1.50
2023-03-15T02:36:16.139Z,1.43
2023-03-15T02:38:43.572Z,1.43
2023-03-15T02:41:13.326Z,1.17
2023-03-15T02:43:41.706Z,1.40
2023-03-15T02:46:10.974Z,1.43
2023-03-15T02:48:39.327Z,1.50
2023-03-15T02:51:06.975Z,1.40
2023-03-15T02:53:36.057Z,1.40
2023-03-15T02:56:03.490Z,1.23
2023-03-15T02:58:32.252Z,1.40
2023-03-15T03:01:02.056Z,1.63
2023-03-15T03:03:31.000Z,1.43
2023-03-15T03:06:01.603Z,1.50
2023-03-15T03:08:28.994Z,1.40
2023-03-15T03:10:56.396Z,1.60
2023-03-15T03:13:24.296Z,1.33
2023-03-15T03:15:58.447Z,1.53
2023-03-15T03:18:29.278Z,1.50
2023-03-15T03:20:58.865Z,1.53
2023-03-15T03:23:27.595Z,1.53
2023-03-15T03:25:55.560Z,1.40
2023-03-15T03:28:24.094Z,1.80
2023-03-15T03:30:52.096Z,1.40
2023-03-15T03:33:19.815Z,1.43
2023-03-15T03:35:48.781Z,1.47
2023-03-15T03:38:17.838Z,1.70
2023-03-15T03:40:51.004Z,1.70
2023-03-15T03:43:18.448Z,1.70
2023-03-15T03:45:45.898Z,1.50
2023-03-15T03:48:13.785Z,1.43
2023-03-15T03:50:41.179Z,1.60
2023-03-15T03:53:08.582Z,1.47
2023-03-15T03:55:38.667Z,1.83
2023-03-15T03:58:06.099Z,1.40
2023-03-15T04:00:44.664Z,1.50
2023-03-15T04:03:12.634Z,1.30
2023-03-15T04:05:44.038Z,1.40
2023-03-15T04:08:16.355Z,1.53
2023-03-15T04:10:45.317Z,1.70
2023-03-15T04:13:12.741Z,1.63
2023-03-15T04:15:40.257Z,1.60
2023-03-15T04:18:10.779Z,1.90
2023-03-15T04:20:46.829Z,1.70
2023-03-15T04:23:15.437Z,1.87
2023-03-15T04:25:57.853Z,1.90
2023-03-15T04:28:44.095Z,1.50
2023-03-15T04:31:38.675Z,1.80
2023-03-15T04:34:16.121Z,1.60
2023-03-15T04:37:05.805Z,1.60
2023-03-15T04:39:42.718Z,1.50
2023-03-15T04:42:31.752Z,1.50
2023-03-15T04:44:59.167Z,1.70
2023-03-15T04:47:55.716Z,1.50
2023-03-15T04:50:29.388Z,1.50
2023-03-15T04:53:08.314Z,1.60
2023-03-15T04:55:46.776Z,1.90
2023-03-15T04:58:35.806Z,1.80
2023-03-15T05:01:11.417Z,1.80
2023-03-15T05:04:10.035Z,1.50
2023-03-15T05:06:56.481Z,1.83
2023-03-15T05:09:46.107Z,2.20
2023-03-15T05:12:33.689Z,1.93
2023-03-15T05:15:21.061Z,2.13
2023-03-15T05:18:05.208Z,2.03
2023-03-15T05:20:51.225Z,2.10
2023-03-15T05:23:29.814Z,2.20
2023-03-15T05:26:29.430Z,2.40
2023-03-15T05:29:32.624Z,2.77
2023-03-15T05:32:50.953Z,2.60
2023-03-15T05:35:51.926Z,2.20
2023-03-15T05:38:38.312Z,2.00
2023-03-15T05:41:27.232Z,2.00
2023-03-15T05:44:06.288Z,2.10
2023-03-15T05:46:41.342Z,2.13
2023-03-15T05:49:36.546Z,2.37
2023-03-15T05:52:11.777Z,3.20
2023-03-15T05:55:11.288Z,3.27
2023-03-15T05:57:53.777Z,3.20
2023-03-15T06:00:22.172Z,2.90
2023-03-15T06:02:53.461Z,2.73
2023-03-15T06:05:48.267Z,2.77
2023-03-15T06:08:20.180Z,2.70
2023-03-15T06:10:50.671Z,2.87
2023-03-15T06:13:18.426Z,3.20
2023-03-15T06:15:47.572Z,3.37
2023-03-15T06:18:18.192Z,2.50
2023-03-15T06:20:49.449Z,2.40
2023-03-15T06:23:18.621Z,2.37
2023-03-15T06:25:47.659Z,2.53
2023-03-15T06:28:15.897Z,2.30
2023-03-15T06:30:49.645Z,2.40
2023-03-15T06:33:18.065Z,2.40
2023-03-15T06:35:47.758Z,2.37
2023-03-15T06:38:16.635Z,2.63
2023-03-15T06:40:44.544Z,2.73
2023-03-15T06:43:18.177Z,2.70
2023-03-15T06:45:46.091Z,3.07
2023-03-15T06:48:13.699Z,3.57
2023-03-15T06:50:47.266Z,3.40
2023-03-15T06:53:17.713Z,3.43
2023-03-15T06:55:45.450Z,3.30
2023-03-15T06:58:13.020Z,2.90
2023-03-15T07:00:40.928Z,2.90
2023-03-15T07:03:08.301Z,2.87
2023-03-15T07:05:35.716Z,2.60
2023-03-15T07:08:03.157Z,2.63
2023-03-15T07:10:31.859Z,2.80
2023-03-15T07:12:59.498Z,3.00
2023-03-15T07:15:26.891Z,2.77
2023-03-15T07:17:54.335Z,2.73
2023-03-15T07:20:21.749Z,2.80
2023-03-15T07:22:49.786Z,3.73
2023-03-15T07:25:23.642Z,2.60
2023-03-15T07:27:52.502Z,3.00
2023-03-15T07:30:20.437Z,2.80
2023-03-15T07:32:48.230Z,3.00
2023-03-15T07:35:16.814Z,3.03
2023-03-15T07:37:44.903Z,2.50
2023-03-15T07:40:13.671Z,2.90
2023-03-15T07:42:41.342Z,3.20
2023-03-15T07:45:11.019Z,2.77
2023-03-15T07:47:38.450Z,2.30
2023-03-15T07:50:06.494Z,2.80
2023-03-15T07:52:33.921Z,2.73
2023-03-15T07:55:01.442Z,2.63
2023-03-15T07:57:29.071Z,2.83
2023-03-15T07:59:56.623Z,2.43
2023-03-15T08:02:25.424Z,2.60
2023-03-15T08:04:53.141Z,2.70
2023-03-15T08:07:20.544Z,2.70
2023-03-15T08:09:48.302Z,4.00
2023-03-15T08:12:15.671Z,4.00
2023-03-15T08:14:43.055Z,4.00
2023-03-15T08:17:13.020Z,3.50
2023-03-15T08:19:41.833Z,3.40
2023-03-15T08:22:09.366Z,2.60
2023-03-15T08:24:36.798Z,3.20
2023-03-15T08:27:07.071Z,2.73
2023-03-15T08:29:34.474Z,2.87
2023-03-15T08:32:01.866Z,2.50
2023-03-15T08:34:29.301Z,2.60
2023-03-15T08:36:58.076Z,2.70
2023-03-15T08:39:30.704Z,2.60
2023-03-15T08:41:58.134Z,2.50
2023-03-15T08:44:25.550Z,2.23
2023-03-15T08:46:53.120Z,2.30
2023-03-15T08:49:20.543Z,2.27
2023-03-15T08:51:47.939Z,2.20
2023-03-15T08:54:16.652Z,2.00
2023-03-15T08:56:44.573Z,2.30
2023-03-15T08:59:19.285Z,2.40
2023-03-15T09:01:49.766Z,2.03
2023-03-15T09:04:17.277Z,2.10
2023-03-15T09:06:44.830Z,1.80
2023-03-15T09:09:12.364Z,1.70
2023-03-15T09:11:41.150Z,1.90
2023-03-15T09:14:08.486Z,1.80
2023-03-15T09:16:35.962Z,1.90
2023-03-15T09:19:03.451Z,1.83
2023-03-15T09:21:31.630Z,1.90
2023-03-15T09:23:59.017Z,1.80
2023-03-15T09:26:26.445Z,1.80
2023-03-15T09:28:55.223Z,1.87
2023-03-15T09:31:22.813Z,1.63
2023-03-15T09:33:50.332Z,1.60
2023-03-15T09:36:17.713Z,1.83
2023-03-15T09:38:47.692Z,1.70
2023-03-15T09:41:19.774Z,1.50
2023-03-15T09:43:59.648Z,1.97
2023-03-15T09:46:31.911Z,1.80
2023-03-15T09:49:02.292Z,1.73
2023-03-15T09:51:35.338Z,1.60
2023-03-15T09:54:06.103Z,1.50
2023-03-15T09:56:35.617Z,1.63
2023-03-15T09:59:16.197Z,1.63
2023-03-15T10:01:48.473Z,1.40
2023-03-15T10:04:28.446Z,1.20
2023-03-15T10:06:56.909Z,1.63
2023-03-15T10:09:26.527Z,1.70
2023-03-15T10:12:00.132Z,1.70
2023-03-15T10:14:33.677Z,2.00
2023-03-15T10:17:06.247Z,1.80
2023-03-15T10:19:37.248Z,1.80
2023-03-15T10:22:09.104Z,1.70
2023-03-15T10:24:38.673Z,1.60
2023-03-15T10:27:14.105Z,1.50
2023-03-15T10:29:41.492Z,1.50
2023-03-15T10:32:17.053Z,1.20
2023-03-15T10:34:46.843Z,1.20
2023-03-15T10:37:15.137Z,1.20
2023-03-15T10:39:46.689Z,1.17
2023-03-15T10:42:25.097Z,1.20
2023-03-15T10:45:00.490Z,1.20
2023-03-15T10:47:29.519Z,1.30
2023-03-15T10:49:57.642Z,1.13
2023-03-15T10:52:29.552Z,1.30
2023-03-15T10:55:03.968Z,1.13
2023-03-15T10:57:35.034Z,1.23
2023-03-15T11:03:19.404Z,1.07
2023-03-15T11:05:47.890Z,0.93
2023-03-15T11:08:16.561Z,1.00
2023-03-15T11:10:45.242Z,1.20
2023-03-15T11:13:14.204Z,1.13
2023-03-15T11:15:47.744Z,1.20
2023-03-15T11:18:20.399Z,1.10
2023-03-15T11:20:48.342Z,1.00
2023-03-15T11:23:16.741Z,0.90
2023-03-15T11:25:44.203Z,0.90
2023-03-15T11:28:16.706Z,1.00
2023-03-15T11:30:44.221Z,1.00
2023-03-15T11:33:15.119Z,0.93
2023-03-15T11:35:48.131Z,0.90
2023-03-15T11:38:18.357Z,0.80
2023-03-15T11:40:48.058Z,1.00
2023-03-15T11:43:18.367Z,0.80
2023-03-15T11:45:49.094Z,0.97
2023-03-15T11:48:40.772Z,0.70
2023-03-15T11:51:11.322Z,0.83
2023-03-15T11:53:42.067Z,0.90
2023-03-15T11:56:23.020Z,0.80
2023-03-15T11:59:03.962Z,1.00
2023-03-15T12:01:31.496Z,0.80
2023-03-15T12:04:17.344Z,0.83
2023-03-15T12:06:46.114Z,1.00
2023-03-15T12:09:32.336Z,0.80
2023-03-15T12:12:00.208Z,0.70
2023-03-15T12:14:29.601Z,0.67
2023-03-15T12:17:17.673Z,0.90
2023-03-15T12:19:45.087Z,0.90
2023-03-15T12:22:17.060Z,0.70
2023-03-15T12:24:46.689Z,0.93
2023-03-15T12:27:17.044Z,1.00
2023-03-15T12:29:45.894Z,1.00
2023-03-15T12:32:14.465Z,0.70
2023-03-15T12:34:46.868Z,0.90
2023-03-15T12:37:17.346Z,0.60
2023-03-15T12:39:46.517Z,0.90
2023-03-15T12:42:15.192Z,1.00
2023-03-15T12:44:43.603Z,0.90
2023-03-15T12:47:11.585Z,1.20
2023-03-15T12:49:41.008Z,0.90
2023-03-15T12:52:14.524Z,0.77
2023-03-15T12:54:44.875Z,0.90
2023-03-15T12:57:12.928Z,0.80
2023-03-15T12:59:51.135Z,1.00
2023-03-15T13:02:35.775Z,0.80
2023-03-15T13:05:16.571Z,0.83
2023-03-15T13:07:52.143Z,1.00
2023-03-15T13:10:26.276Z,0.90
2023-03-15T13:12:57.283Z,0.70
2023-03-15T13:15:29.781Z,1.00
2023-03-15T13:17:57.725Z,1.10
2023-03-15T13:20:38.838Z,1.00
2023-03-15T13:23:12.142Z,0.87
2023-03-15T13:25:47.236Z,0.87
2023-03-15T13:28:17.654Z,0.90
2023-03-15T13:30:48.021Z,0.87
2023-03-15T13:33:20.241Z,0.87
2023-03-15T13:35:48.653Z,1.10
2023-03-15T13:38:27.114Z,1.00
2023-03-15T13:40:56.629Z,1.00
2023-03-15T13:43:27.903Z,0.90
2023-03-15T13:45:57.881Z,1.30
2023-03-15T13:48:27.010Z,0.80
2023-03-15T13:50:55.128Z,1.13
2023-03-15T13:53:35.662Z,0.90
2023-03-15T13:56:16.387Z,1.00
2023-03-15T13:58:44.245Z,1.13
2023-03-15T14:01:13.458Z,1.10
2023-03-15T14:03:43.305Z,1.03
2023-03-15T14:06:13.130Z,1.00
2023-03-15T14:08:41.154Z,0.97
2023-03-15T14:11:11.226Z,0.97
2023-03-15T14:13:49.767Z,0.90
2023-03-15T14:16:18.184Z,1.07
2023-03-15T14:18:45.697Z,1.30
2023-03-15T14:21:15.220Z,1.10
2023-03-15T14:23:44.019Z,1.03
2023-03-15T14:26:13.853Z,0.80
2023-03-15T14:28:41.700Z,0.80
2023-03-15T14:31:23.082Z,1.07
2023-03-15T14:33:55.420Z,0.70
2023-03-15T14:36:39.065Z,0.90
2023-03-15T14:39:18.636Z,0.70
2023-03-15T14:41:46.199Z,0.90
2023-03-15T14:44:13.632Z,0.90
2023-03-15T14:46:42.353Z,0.73
2023-03-15T14:49:12.829Z,1.27
2023-03-15T14:51:40.300Z,0.80
2023-03-15T14:54:08.614Z,0.90
2023-03-15T14:56:37.660Z,1.00
2023-03-15T14:59:10.225Z,0.80
2023-03-15T15:01:38.329Z,1.03
2023-03-15T15:04:07.700Z,1.00
2023-03-15T15:06:38.742Z,1.00
2023-03-15T15:09:06.676Z,0.83
2023-03-15T15:11:34.277Z,0.80
2023-03-15T15:14:01.725Z,0.97
2023-03-15T15:16:29.138Z,0.80
2023-03-15T15:18:56.530Z,1.00
2023-03-15T15:21:26.780Z,1.00
2023-03-15T15:23:58.823Z,0.90
2023-03-15T15:26:27.508Z,0.90
2023-03-15T15:28:55.144Z,0.70
2023-03-15T15:31:23.857Z,0.80
2023-03-15T15:33:51.383Z,0.70
2023-03-15T15:36:21.795Z,0.70
2023-03-15T15:38:50.633Z,0.70
2023-03-15T15:41:20.358Z,0.70
2023-03-15T15:43:47.770Z,0.70
2023-03-15T15:46:15.184Z,0.70
2023-03-15T15:48:42.678Z,0.50
2023-03-15T15:51:16.832Z,0.50
2023-03-15T15:53:44.212Z,0.60
2023-03-15T15:56:13.448Z,0.60
2023-03-15T15:58:41.256Z,0.70
2023-03-15T16:01:11.249Z,0.50
2023-03-15T16:03:38.642Z,0.70
2023-03-15T16:06:06.287Z,0.70
2023-03-15T16:08:35.474Z,0.80
2023-03-15T16:11:02.966Z,0.73
2023-03-15T16:13:31.701Z,0.80
2023-03-15T16:15:59.123Z,0.50
2023-03-15T16:18:26.695Z,0.70
2023-03-15T16:20:54.797Z,0.50
2023-03-15T16:23:23.443Z,0.70
2023-03-15T16:25:51.891Z,0.63
2023-03-15T16:28:19.311Z,0.60
2023-03-15T16:30:48.183Z,0.73
2023-03-15T16:33:17.483Z,0.60
2023-03-15T16:35:45.269Z,0.73
2023-03-15T16:38:14.506Z,1.00
2023-03-15T16:40:43.027Z,0.73
2023-03-15T16:43:11.622Z,1.00
2023-03-15T16:45:39.031Z,0.70
2023-03-15T16:48:20.532Z,0.60
2023-03-15T16:50:48.579Z,0.70
2023-03-15T16:53:20.397Z,0.70
2023-03-15T16:55:49.328Z,0.80
2023-03-15T16:58:18.003Z,0.60
2023-03-15T17:00:46.976Z,0.70
2023-03-15T17:03:16.570Z,0.90
2023-03-15T17:05:45.268Z,0.80
2023-03-15T17:08:14.446Z,0.70
2023-03-15T17:10:42.931Z,0.90
2023-03-15T17:13:12.030Z,0.70
2023-03-15T17:15:39.442Z,0.70
2023-03-15T17:18:08.347Z,0.70
2023-03-15T17:20:37.840Z,0.70
2023-03-15T17:23:05.425Z,0.80
2023-03-15T17:25:33.231Z,0.90
2023-03-15T17:28:02.006Z,0.90
2023-03-15T17:30:30.905Z,0.90
2023-03-15T17:32:58.371Z,0.90
2023-03-15T17:35:28.458Z,0.90
2023-03-15T17:37:57.407Z,0.80
2023-03-15T17:40:26.858Z,0.90
2023-03-15T17:42:54.911Z,0.77
2023-03-15T17:45:23.275Z,0.90
2023-03-15T17:47:51.016Z,0.70
2023-03-15T17:50:18.830Z,0.90
2023-03-15T17:52:46.910Z,0.93
2023-03-15T17:55:17.412Z,0.80
2023-03-15T17:57:53.923Z,1.00
2023-03-15T18:00:22.602Z,0.80
2023-03-15T18:02:55.651Z,0.83
2023-03-15T18:05:24.412Z,1.30
2023-03-15T18:07:58.697Z,1.20
2023-03-15T18:10:32.482Z,1.30
2023-03-15T18:12:59.885Z,1.90
2023-03-15T18:15:27.312Z,3.67
2023-03-15T18:17:54.816Z,2.97
2023-03-15T18:20:23.768Z,3.70
2023-03-15T18:22:51.292Z,3.50
2023-03-15T18:25:20.038Z,3.23
2023-03-15T18:27:49.286Z,2.70
2023-03-15T18:30:18.129Z,2.70
2023-03-15T18:32:45.969Z,2.43
2023-03-15T18:35:15.787Z,3.63
2023-03-15T18:37:43.239Z,3.70
2023-03-15T18:40:11.546Z,2.80
2023-03-15T18:42:38.914Z,3.30
2023-03-15T18:45:08.995Z,2.90
2023-03-15T18:47:36.393Z,2.80
2023-03-15T18:50:10.490Z,2.53
2023-03-15T18:52:38.358Z,2.40
2023-03-15T18:55:07.682Z,2.57
2023-03-15T18:57:35.200Z,2.40
2023-03-15T19:00:05.150Z,2.33
2023-03-15T19:02:33.921Z,2.00
2023-03-15T19:05:01.777Z,1.90
2023-03-15T19:07:29.161Z,1.80
2023-03-15T19:09:56.538Z,2.90
2023-03-15T19:12:23.944Z,3.07
2023-03-15T19:14:51.330Z,3.10
2023-03-15T19:17:18.725Z,3.43
2023-03-15T19:19:47.531Z,3.20
2023-03-15T19:22:14.965Z,2.70
2023-03-15T19:24:42.457Z,2.27
2023-03-15T19:27:09.902Z,1.90
2023-03-15T19:29:37.326Z,1.90
2023-03-15T19:32:05.586Z,2.70
2023-03-15T19:34:33.128Z,2.07
2023-03-15T19:37:01.962Z,1.67
2023-03-15T19:39:29.310Z,1.50
2023-03-15T19:41:56.843Z,2.00
2023-03-15T19:44:24.236Z,1.63
2023-03-15T19:46:52.078Z,2.10
2023-03-15T19:49:19.767Z,2.67
2023-03-15T19:51:47.208Z,3.30
2023-03-15T19:54:16.089Z,4.00
2023-03-15T19:56:45.485Z,5.10
2023-03-15T19:59:12.858Z,6.57
2023-03-15T20:01:40.281Z,5.87
2023-03-15T20:04:07.767Z,4.80
2023-03-15T20:06:35.263Z,4.93
2023-03-15T20:09:02.906Z,5.60
2023-03-15T20:11:31.768Z,5.23
2023-03-15T20:13:59.182Z,4.40
2023-03-15T20:16:26.689Z,2.40
2023-03-15T20:18:55.626Z,2.57
2023-03-15T20:21:23.443Z,2.57
2023-03-15T20:23:50.895Z,2.00
2023-03-15T20:26:18.837Z,2.20
2023-03-15T20:28:47.889Z,3.70
2023-03-15T20:31:16.476Z,4.60
2023-03-15T20:33:44.161Z,3.50
2023-03-15T20:36:12.065Z,2.40
2023-03-15T20:38:39.705Z,3.13
2023-03-15T20:41:07.572Z,3.83
2023-03-15T20:43:35.245Z,3.23
2023-03-15T20:46:04.466Z,3.13
2023-03-15T20:48:32.620Z,2.70
2023-03-15T20:51:00.139Z,2.80
2023-03-15T20:53:27.968Z,2.60
2023-03-15T20:55:55.335Z,2.60
2023-03-15T20:58:22.790Z,2.70
2023-03-15T21:00:50.707Z,2.90
2023-03-15T21:03:19.517Z,2.63
2023-03-15T21:05:47.096Z,3.17
2023-03-15T21:08:14.828Z,2.67
2023-03-15T21:10:42.260Z,3.03
2023-03-15T21:13:11.007Z,3.50
2023-03-15T21:15:50.453Z,2.33
2023-03-15T21:18:33.103Z,2.40
2023-03-15T21:21:01.513Z,2.03
2023-03-15T21:23:31.086Z,2.30
2023-03-15T21:25:58.696Z,2.40
2023-03-15T21:28:26.204Z,2.57
2023-03-15T21:30:53.864Z,2.30
2023-03-15T21:33:21.596Z,2.00
2023-03-15T21:35:50.725Z,2.20
2023-03-15T21:38:18.271Z,2.27
2023-03-15T21:40:46.090Z,2.30
2023-03-15T21:43:13.687Z,2.53
2023-03-15T21:45:42.122Z,2.73
2023-03-15T21:48:09.941Z,2.50
2023-03-15T21:50:37.402Z,2.50
2023-03-15T21:53:06.139Z,2.80
2023-03-15T21:55:34.379Z,2.10
2023-03-15T21:58:02.630Z,2.53
2023-03-15T22:00:30.512Z,2.17
2023-03-15T22:02:58.054Z,1.90
2023-03-15T22:05:25.760Z,2.37
2023-03-15T22:07:53.177Z,2.53
2023-03-15T22:10:22.981Z,2.30
2023-03-15T22:12:53.786Z,2.20
2023-03-15T22:15:23.414Z,2.27
2023-03-15T22:17:51.373Z,2.40
2023-03-15T22:20:18.867Z,2.20
2023-03-15T22:22:46.690Z,2.10
2023-03-15T22:25:14.364Z,2.00
2023-03-15T22:27:43.396Z,2.20
2023-03-15T22:30:13.404Z,1.87
2023-03-15T22:32:43.930Z,2.70
2023-03-15T22:35:11.872Z,2.70
2023-03-15T22:37:39.290Z,2.60
2023-03-15T22:40:07.251Z,3.10
2023-03-15T22:42:34.872Z,2.80
2023-03-15T22:45:03.656Z,2.90
2023-03-15T22:47:31.028Z,3.23
2023-03-15T22:49:59.584Z,2.63
2023-03-15T22:52:27.066Z,2.87
2023-03-15T22:54:54.586Z,2.70
2023-03-15T22:57:22.212Z,3.10
2023-03-15T22:59:49.658Z,3.00
2023-03-15T23:02:18.477Z,2.70
2023-03-15T23:04:46.151Z,2.60
2023-03-15T23:07:13.675Z,2.90
2023-03-15T23:09:41.083Z,2.77
2023-03-15T23:12:08.856Z,2.87
2023-03-15T23:14:36.494Z,2.80
2023-03-15T23:17:04.206Z,2.80
2023-03-15T23:19:35.097Z,3.13
2023-03-15T23:22:03.735Z,2.60
2023-03-15T23:24:33.904Z,2.87
2023-03-15T23:27:03.358Z,2.30
2023-03-15T23:29:32.567Z,2.80
2023-03-15T23:32:00.095Z,2.57
2023-03-15T23:34:28.235Z,2.73
2023-03-15T23:36:57.149Z,2.50
2023-03-15T23:39:24.535Z,2.60
2023-03-15T23:41:52.065Z,2.77
2023-03-15T23:44:19.421Z,2.47
2023-03-15T23:46:46.880Z,2.47
2023-03-15T23:49:14.267Z,3.43
2023-03-15T23:51:43.747Z,2.30
2023-03-15T23:54:12.544Z,2.70
2023-03-15T23:56:40.306Z,2.83
2023-03-15T23:59:07.728Z,2.43
